Flight Track Log - Related Links

Times and Time Zones

All times are in EDT time to prevent confusion due to time zone crossing. See the GJS3706 flight status page for this flight to view local times or setup timezone preferences in your user account.

Time Position Orientation Groundspeed Altitude Reporting Facility
EDT Latitude Longitude Course Direction KTS MPH feet Rate Location/Type
Wed 10:57:01 AM 41.9167 -87.9000 166° South 189 217 2,700  Level Chicago TRACON
Wed 10:58:01 AM 41.8500 -87.9000 180° South 233 268 5,500 2,412 Climbing Chicago TRACON
Wed 10:58:43 AM 41.8183 -87.9047 186° South 233 268 6,800 2,019 Climbing Chicago Center
Wed 10:59:00 AM 41.6643 -87.5370 153° Southeast  Level Estimated
Wed 10:59:45 AM 41.7425 -87.8653 159° South 300 345 9,000  Level Chicago Center
Wed 11:00:00 AM 41.5606 -87.5595 189° South  Level FlightAware Approximate
Wed 11:00:47 AM 41.6533 -87.7814 145° Southeast 322 371 12,700  Level Chicago Center
Wed 11:01:00 AM 41.4827 -87.4652 166° South  Level Estimated
Wed 11:01:49 AM 41.5744 -87.7078 145° Southeast 340 391 15,300  Level Chicago Center
Wed 11:02:00 AM 41.4048 -87.3712 166° South  Level Estimated
Wed 11:02:51 AM 41.4925 -87.6328 146° Southeast 351 404 18,200  Level Chicago Center
Wed 11:03:53 AM 41.4047 -87.5694 152° Southeast 363 418 20,300 1,355 Climbing Chicago Center
Wed 11:04:55 AM 41.3000 -87.5508 172° South 379 436 21,000 339 Climbing Chicago Center
Wed 11:05:57 AM 41.1947 -87.5225 169° South 398 458 21,000  Level Chicago Center
Wed 11:06:59 AM 41.0767 -87.4256 148° Southeast 420 483 21,000  Level Chicago Center
Wed 11:08:01 AM 40.9794 -87.3433 147° Southeast 419 482 21,000  Level Chicago Center
Wed 11:09:03 AM 40.8811 -87.2597 147° Southeast 421 484 21,000  Level Chicago Center
Wed 11:10:05 AM 40.7836 -87.1775 147° Southeast 418 481 21,000  Level Chicago Center
Wed 11:11:07 AM 40.6881 -87.0964 147° Southeast 412 474 21,000  Level Chicago Center
Wed 11:12:09 AM 40.5764 -87.0008 147° Southeast 426 490 21,000  Level Chicago Center
Wed 11:13:11 AM 40.4764 -86.9178 148° Southeast 429 494 21,000  Level Chicago Center
Wed 11:14:13 AM 40.3781 -86.8358 148° Southeast 422 486 21,000  Level Chicago Center
Wed 11:15:15 AM 40.2819 -86.7533 147° Southeast 417 480 21,000  Level Chicago Center
Wed 11:16:17 AM 40.1847 -86.6739 148° Southeast 415 478 21,000  Level Chicago Center
Wed 11:17:04 AM 40.1053 -86.6075 147° Southeast 417 480 21,000  Level Indianapolis Center
Wed 11:18:06 AM 40.0058 -86.5253 148° Southeast 422 486 21,000 -387 Level Indianapolis Center
Wed 11:19:08 AM 39.8886 -86.4289 148° Southeast 417 480 20,200 -1,113 Descending Indianapolis Center
Wed 11:20:10 AM 39.8025 -86.3281 138° Southeast 438 504 18,700 -1,645 Descending Indianapolis Center
Wed 11:21:12 AM 39.7497 -86.1706 114° Southeast 445 512 16,800 -1,879 Descending Indianapolis Center
Wed 11:21:49 AM 39.7167 -86.0833 116° Southeast 435 501 15,600 -1,672 Descending Indianapolis TRACON
Wed 11:22:13 AM 39.7025 -86.0292 109° East 431 496 15,100 -1,047 Descending Indianapolis Center
Wed 11:23:15 AM 39.6564 -85.8958 114° Southeast 411 473 14,100 -677 Descending Indianapolis Center
Wed 11:24:17 AM 39.6114 -85.7633 114° Southeast 405 466 13,700 -1,065 Descending Indianapolis Center
Wed 11:25:19 AM 39.5672 -85.6303 113° Southeast 403 464 11,900 -1,306 Descending Indianapolis Center
Wed 11:26:21 AM 39.5228 -85.5000 114° Southeast 397 457 11,000 -439 Descending Indianapolis Center
Wed 11:27:22 AM 39.4631 -85.3853 124° Southeast 386 444 11,000  Level Indianapolis Center
Wed 11:28:24 AM 39.3917 -85.2467 124° Southeast 388 447 11,000 -484 Level Indianapolis Center
Wed 11:29:26 AM 39.3761 -85.1264 99° East 336 387 10,000 -1,548 Descending Indianapolis Center
Wed 11:30:28 AM 39.3594 -85.0131 101° East 323 372 7,800 -1,984 Descending Indianapolis Center
Wed 11:31:30 AM 39.3394 -84.9017 103° East 320 368 5,900 -1,528 Descending Indianapolis Center
Wed 11:32:14 AM 39.3000 -84.8333 127° Southeast 274 315 5,100 -1,038 Descending Cincinnati TRACON
Wed 11:33:14 AM 39.2500 -84.7667 134° Southeast 260 299 4,100 -810 Descending Cincinnati TRACON
Wed 11:34:20 AM 39.2000 -84.7000 134° Southeast 203 234 3,400 -750 Descending Cincinnati TRACON
Wed 11:35:14 AM 39.1500 -84.6667 153° Southeast 195 224 2,600 -889 Descending Cincinnati TRACON

Login

Don't have an account? Register now (free) for customized features, flight alerts, and more!